Bronx, NY

3:19 AM EDT on September 04, 2015 (GMT -0400)
South Bronx | | Change Station
CLOSE
Current Station
Personal Weather Station
Location: New York, NY
Elevation: 36 ft
Nearby Weather Stations

Elev 36 ft 40.81 °N, 73.91 °W | Updated 53 minutes ago

Partly Cloudy
Partly Cloudy
79.8 °F
Feels Like 82 °F
N
1.1
Wind Variable Wind from WSW
Gusts 5.1 mph

Today
High -- | Low -- °F
--% Chance of Precip.
Yesterday
High -- | Low -- °F
Precip. -- in
6:25 AM 7:23 PM
Waning Gibbous, 62% visible
Pressure 29.91 in
Visibility 10.0 miles
Clouds Mostly Cloudy 25000 ft
Heat Index 82 °F
Dew Point 68 °F
Humidity 67%
Rainfall Not available.
Snow Depth Not available.
UV 0 out of 12
Pollen 9.60 out of 12
Air Quality Not available.
Flu Activity Not available.
METAR KLGA 040651Z 04006KT 10SM BKN250 26/19 A2990 RMK AO2 SLP126 T02610189 $
Pressure 29.91 in
Visibility 10.0 miles
Clouds Mostly Cloudy 25000 ft
Heat Index 82 °F
Dew Point 68 °F
Humidity 67%
Rainfall Not available.
Snow Depth Not available.
UV 0 out of 12
Pollen 9.60 out of 12
Air Quality Not available.
Flu Activity Not available.
METAR KLGA 040651Z 04006KT 10SM BKN250 26/19 A2990 RMK AO2 SLP126 T02610189 $

10-Day Weather Forecast

×

Almanac

Astronomy

Sep. 04, 2015 Rise Set
Actual Time
Civil Twilight
Nautical Twilight
Astronomical Twilight
Moon
Length of Visible Light
Length of Day
Tomorrow will be .
, % of the Moon is Illuminated

Today's Extremes

State Highs State Lows

Community

WunderPhotos

Upload Photos

1,852,132 photos uploaded!

WunderBlogs® & News

Nearby

Air Quality

  Air Quality AQ Index Pollutant
Not available.

Snow Depth

Station Depth Elevation

Earthquake Activity

City Distance Mag. Time & Date
Minimum magnitude displayed is 2.5.

Coastal Water Temperatures

Place Temperature

Stations

Nearby Weather Stations

Station Location Temp. Windchill Dew Point Humidity Wind Precip. Elev Updated Type